createdAt,value
2022-09-15T00:00:47.036Z,90.44
2022-09-15T00:01:47.468Z,90.74
2022-09-15T00:02:47.873Z,90.74
2022-09-15T00:03:48.091Z,90.74
2022-09-15T00:04:48.450Z,90.64
2022-09-15T00:05:48.813Z,90.64
2022-09-15T00:06:49.177Z,90.53
2022-09-15T00:07:49.550Z,90.19
2022-09-15T00:08:49.914Z,89.98
2022-09-15T00:09:50.265Z,89.98
2022-09-15T00:10:50.628Z,89.98
2022-09-15T00:11:50.985Z,90.19
2022-09-15T00:12:51.403Z,90.09
2022-09-15T00:13:51.886Z,90.19
2022-09-15T00:14:52.058Z,90.29
2022-09-15T00:15:52.417Z,90.19
2022-09-15T00:16:52.798Z,90.19
2022-09-15T00:17:53.178Z,90.44
2022-09-15T00:18:53.494Z,90.64
2022-09-15T00:19:53.851Z,90.64
2022-09-15T00:20:54.221Z,90.74
2022-09-15T00:21:54.569Z,90.94
2022-09-15T00:22:54.941Z,91.05
2022-09-15T00:23:55.294Z,91.14
2022-09-15T00:24:55.642Z,91.05
2022-09-15T00:25:56.000Z,90.80
2022-09-15T00:26:56.382Z,91.05
2022-09-15T00:27:56.770Z,91.14
2022-09-15T00:28:57.098Z,91.35
2022-09-15T00:29:57.465Z,91.35
2022-09-15T00:30:57.904Z,91.45
2022-09-15T00:31:58.185Z,91.45
2022-09-15T00:32:58.566Z,91.45
2022-09-15T00:33:58.919Z,91.65
2022-09-15T00:34:59.276Z,91.75
2022-09-15T00:35:59.631Z,91.86
2022-09-15T00:36:59.990Z,91.96
2022-09-15T00:38:00.362Z,91.75
2022-09-15T00:39:00.740Z,91.96
2022-09-15T00:40:01.120Z,92.06
2022-09-15T00:41:01.444Z,92.16
2022-09-15T00:42:01.798Z,92.36
2022-09-15T00:43:02.168Z,92.36
2022-09-15T00:44:02.521Z,92.36
2022-09-15T00:45:02.883Z,92.26
2022-09-15T00:46:03.281Z,92.16
2022-09-15T00:47:18.758Z,92.16
2022-09-15T00:48:03.991Z,92.26
2022-09-15T00:49:04.345Z,92.36
2022-09-15T00:50:04.701Z,92.47
2022-09-15T00:51:05.055Z,92.71
2022-09-15T00:52:05.410Z,92.51
2022-09-15T00:53:05.799Z,92.41
2022-09-15T00:54:06.145Z,92.61
2022-09-15T00:55:06.505Z,92.71
2022-09-15T00:56:06.860Z,92.82
2022-09-15T00:57:07.218Z,92.91
2022-09-15T00:58:07.590Z,93.02
2022-09-15T00:59:07.948Z,93.12
2022-09-15T01:00:08.303Z,93.02
2022-09-15T01:01:08.754Z,93.12
2022-09-15T01:02:09.079Z,93.22
2022-09-15T01:03:09.440Z,93.12
2022-09-15T01:04:09.751Z,93.12
2022-09-15T01:05:10.114Z,93.22
2022-09-15T01:06:10.475Z,93.12
2022-09-15T01:07:10.835Z,93.22
2022-09-15T01:08:11.211Z,93.32
2022-09-15T01:09:11.589Z,93.63
2022-09-15T01:10:11.944Z,93.63
2022-09-15T01:11:12.300Z,93.83
2022-09-15T01:12:12.652Z,94.04
2022-09-15T01:13:13.035Z,94.13
2022-09-15T01:14:13.384Z,94.24
2022-09-15T01:15:13.742Z,94.13
2022-09-15T01:16:14.135Z,94.34
2022-09-15T01:17:14.464Z,94.34
2022-09-15T01:18:14.871Z,94.44
2022-09-15T01:19:15.185Z,94.54
2022-09-15T01:20:15.538Z,94.44
2022-09-15T01:21:15.902Z,94.54
2022-09-15T01:22:16.259Z,94.64
2022-09-15T01:23:16.643Z,94.74
2022-09-15T01:24:17.003Z,94.85
2022-09-15T01:25:17.356Z,94.95
2022-09-15T01:26:17.711Z,94.95
2022-09-15T01:27:40.968Z,95.05
2022-09-15T01:28:18.468Z,95.15
2022-09-15T01:29:21.208Z,95.36
2022-09-15T01:30:19.139Z,95.46
2022-09-15T01:31:19.553Z,95.66
2022-09-15T01:32:19.857Z,95.86
2022-09-15T01:33:20.237Z,96.17
2022-09-15T01:34:20.594Z,96.37
2022-09-15T01:35:20.950Z,96.78
2022-09-15T01:36:21.310Z,96.98
2022-09-15T01:37:21.662Z,97.29
2022-09-15T01:38:22.037Z,97.49
2022-09-15T01:39:22.396Z,97.49
2022-09-15T01:40:22.818Z,97.69
2022-09-15T01:41:23.112Z,97.69
2022-09-15T01:42:23.473Z,97.69
2022-09-15T01:43:23.853Z,97.69
2022-09-15T01:44:24.206Z,97.80
2022-09-15T01:45:24.637Z,97.69
2022-09-15T01:46:24.950Z,97.80
2022-09-15T01:47:25.260Z,97.89
2022-09-15T01:48:25.627Z,97.89
2022-09-15T01:49:25.978Z,97.89
2022-09-15T01:50:26.332Z,98.00
2022-09-15T01:51:26.694Z,98.10
2022-09-15T01:52:27.042Z,98.20
2022-09-15T01:53:27.420Z,98.30
2022-09-15T01:54:27.766Z,98.41
2022-09-15T01:55:28.131Z,98.45
2022-09-15T01:56:28.481Z,98.45
2022-09-15T01:57:28.842Z,98.55
2022-09-15T01:58:29.202Z,98.55
2022-09-15T01:59:29.590Z,98.55
2022-09-15T02:00:29.935Z,98.66
2022-09-15T02:01:30.308Z,98.66
2022-09-15T02:02:30.685Z,98.71
2022-09-15T02:03:31.037Z,98.71
2022-09-15T02:04:31.353Z,98.61
2022-09-15T02:05:31.710Z,98.61
2022-09-15T02:06:32.071Z,98.71
2022-09-15T02:07:32.424Z,98.71
2022-09-15T02:08:32.804Z,98.81
2022-09-15T02:09:33.168Z,98.81
2022-09-15T02:10:33.522Z,98.81
2022-09-15T02:11:33.884Z,98.91
2022-09-15T02:12:34.243Z,99.02
2022-09-15T02:13:34.621Z,99.11
2022-09-15T02:14:34.989Z,99.32
2022-09-15T02:15:35.339Z,99.32
2022-09-15T02:16:35.754Z,99.42
2022-09-15T02:17:36.093Z,99.42
2022-09-15T02:18:36.473Z,99.42
2022-09-15T02:19:36.791Z,99.42
2022-09-15T02:20:37.147Z,99.32
2022-09-15T02:21:37.510Z,99.11
2022-09-15T02:22:37.862Z,99.11
2022-09-15T02:23:38.236Z,98.91
2022-09-15T02:24:38.595Z,98.81
2022-09-15T02:25:38.950Z,98.71
2022-09-15T02:26:39.302Z,98.71
2022-09-15T02:27:39.661Z,98.81
2022-09-15T02:28:40.011Z,98.81
2022-09-15T02:29:40.377Z,98.61
2022-09-15T02:30:40.730Z,98.71
2022-09-15T02:31:41.180Z,98.71
2022-09-15T02:32:41.452Z,98.71
2022-09-15T02:33:41.863Z,98.71
2022-09-15T02:34:42.213Z,98.61
2022-09-15T02:35:42.579Z,98.50
2022-09-15T02:36:42.938Z,98.61
2022-09-15T02:37:43.300Z,98.10
2022-09-15T02:38:43.697Z,97.69
2022-09-15T02:39:44.016Z,97.60
2022-09-15T02:40:44.371Z,97.49
2022-09-15T02:41:44.729Z,97.49
2022-09-15T02:42:45.085Z,97.29
2022-09-15T02:43:45.464Z,97.19
2022-09-15T02:44:45.811Z,97.08
2022-09-15T02:45:46.234Z,97.08
2022-09-15T02:46:46.533Z,97.19
2022-09-15T02:47:46.908Z,97.19
2022-09-15T02:48:47.278Z,97.19
2022-09-15T02:49:47.631Z,97.19
2022-09-15T02:50:47.988Z,97.29
2022-09-15T02:51:48.339Z,97.19
2022-09-15T02:52:48.697Z,97.19
2022-09-15T02:53:49.068Z,97.19
2022-09-15T02:54:49.422Z,97.19
2022-09-15T02:55:49.779Z,97.29
2022-09-15T02:56:50.144Z,97.49
2022-09-15T02:57:50.496Z,97.60
2022-09-15T02:58:50.878Z,97.69
2022-09-15T02:59:51.196Z,97.49
2022-09-15T03:00:51.622Z,97.60
2022-09-15T03:01:52.011Z,97.69
2022-09-15T03:02:52.306Z,97.80
2022-09-15T03:03:52.674Z,97.89
2022-09-15T03:04:53.022Z,98.00
2022-09-15T03:05:53.384Z,98.00
2022-09-15T03:06:53.749Z,98.10
2022-09-15T03:08:00.113Z,98.10
2022-09-15T03:08:55.203Z,98.10
2022-09-15T03:09:54.804Z,98.30
2022-09-15T03:10:55.166Z,98.41
2022-09-15T03:11:55.521Z,98.41
2022-09-15T03:12:55.880Z,98.50
2022-09-15T03:13:56.249Z,98.61
2022-09-15T03:14:56.610Z,98.71
2022-09-15T03:15:56.976Z,98.71
2022-09-15T03:16:57.332Z,98.71
2022-09-15T03:17:57.704Z,98.71
2022-09-15T03:18:58.092Z,98.81
2022-09-15T03:19:58.406Z,98.91
2022-09-15T03:20:58.767Z,99.02
2022-09-15T03:21:59.124Z,99.27
2022-09-15T03:22:59.487Z,99.37
2022-09-15T03:23:59.861Z,99.47
2022-09-15T03:25:00.197Z,99.57
2022-09-15T03:26:00.550Z,99.67
2022-09-15T03:27:00.919Z,99.67
2022-09-15T03:28:01.278Z,99.67
2022-09-15T03:29:01.657Z,99.67
2022-09-15T03:30:02.017Z,99.77
2022-09-15T03:31:02.552Z,99.77
2022-09-15T03:32:02.779Z,99.73
2022-09-15T03:33:03.201Z,99.73
2022-09-15T03:34:03.491Z,99.83
2022-09-15T03:35:03.836Z,99.83
2022-09-15T03:36:04.199Z,99.83
2022-09-15T03:37:04.580Z,99.73
2022-09-15T03:38:04.931Z,99.83
2022-09-15T03:39:05.309Z,99.83
2022-09-15T03:40:05.701Z,99.99
2022-09-15T03:41:06.040Z,99.99
2022-09-15T03:42:06.397Z,99.99
2022-09-15T03:43:06.762Z,99.99
2022-09-15T03:44:07.159Z,99.99
2022-09-15T03:45:07.477Z,99.99
2022-09-15T03:46:07.968Z,99.99
2022-09-15T03:47:08.221Z,99.99
2022-09-15T03:48:08.575Z,99.99
2022-09-15T03:49:08.932Z,99.99
2022-09-15T03:50:09.289Z,99.99
2022-09-15T03:51:09.638Z,99.99
2022-09-15T03:52:10.007Z,99.99
2022-09-15T03:53:10.365Z,99.99
2022-09-15T03:54:10.733Z,99.99
2022-09-15T03:55:11.085Z,99.99
2022-09-15T03:56:11.454Z,99.99
2022-09-15T03:57:11.813Z,99.99
2022-09-15T03:58:12.169Z,99.99
2022-09-15T03:59:12.545Z,99.99
2022-09-15T04:00:12.893Z,99.99
2022-09-15T04:01:13.289Z,99.99
2022-09-15T04:02:13.668Z,99.99
2022-09-15T04:03:13.988Z,99.99
2022-09-15T04:04:14.351Z,99.99
2022-09-15T04:05:14.706Z,99.99
2022-09-15T04:06:15.057Z,99.99
2022-09-15T04:07:15.422Z,99.99
2022-09-15T04:08:15.781Z,99.99
2022-09-15T04:09:16.174Z,99.99
2022-09-15T04:10:16.508Z,99.99
2022-09-15T04:11:16.884Z,99.99
2022-09-15T04:12:17.245Z,99.99
2022-09-15T04:13:17.607Z,99.99
2022-09-15T04:14:17.987Z,99.99
2022-09-15T04:15:18.348Z,99.99
2022-09-15T04:16:18.762Z,99.99
2022-09-15T04:17:19.094Z,99.99
2022-09-15T04:18:19.518Z,99.99
2022-09-15T04:19:19.912Z,99.99
2022-09-15T04:20:20.213Z,99.99
2022-09-15T04:21:20.470Z,99.77
2022-09-15T04:22:20.633Z,99.57
2022-09-15T04:23:20.802Z,99.67
2022-09-15T04:24:21.238Z,99.37
2022-09-15T04:25:21.345Z,98.96
2022-09-15T04:26:21.607Z,98.75
2022-09-15T04:27:21.785Z,98.45
2022-09-15T04:28:21.966Z,97.94
2022-09-15T04:29:22.241Z,97.74
2022-09-15T04:30:22.408Z,96.92
2022-09-15T04:31:22.632Z,97.13
2022-09-15T04:32:22.843Z,97.03
2022-09-15T04:33:23.019Z,96.72
2022-09-15T04:34:23.209Z,96.42
2022-09-15T04:35:23.486Z,95.50
2022-09-15T04:36:23.762Z,95.50
2022-09-15T04:37:24.057Z,95.81
2022-09-15T04:38:24.261Z,96.22
2022-09-15T04:39:24.547Z,96.52
2022-09-15T04:40:24.749Z,97.03
2022-09-15T04:41:24.880Z,97.33
2022-09-15T04:42:25.059Z,97.53
2022-09-15T04:43:25.264Z,97.74
2022-09-15T04:44:25.443Z,97.74
2022-09-15T04:45:25.705Z,97.84
2022-09-15T04:46:26.121Z,97.94
2022-09-15T04:47:26.286Z,98.05
2022-09-15T04:48:26.469Z,98.05
2022-09-15T04:49:26.773Z,98.14
2022-09-15T04:50:26.949Z,98.05
2022-09-15T04:51:27.229Z,98.05
2022-09-15T04:52:27.402Z,98.05
2022-09-15T04:53:27.692Z,98.05
2022-09-15T04:54:27.897Z,97.84
2022-09-15T04:55:28.055Z,97.53
2022-09-15T04:56:28.263Z,97.53
2022-09-15T04:57:28.420Z,97.33
2022-09-15T04:58:28.592Z,97.23
2022-09-15T04:59:28.785Z,97.23
2022-09-15T05:00:28.944Z,96.42
2022-09-15T05:01:29.168Z,96.22
2022-09-15T05:02:29.367Z,96.22
2022-09-15T05:03:29.475Z,96.07
2022-09-15T05:04:29.667Z,96.37
2022-09-15T05:05:29.865Z,96.78
2022-09-15T05:06:30.014Z,97.03
2022-09-15T05:07:30.207Z,97.23
2022-09-15T05:08:30.386Z,97.53
2022-09-15T05:09:30.589Z,97.94
2022-09-15T05:10:30.701Z,97.84
2022-09-15T05:11:30.874Z,97.94
2022-09-15T05:12:31.076Z,98.05
2022-09-15T05:13:31.226Z,98.25
2022-09-15T05:14:31.412Z,98.35
2022-09-15T05:15:31.588Z,98.55
2022-09-15T05:16:31.781Z,98.66
2022-09-15T05:17:31.945Z,98.75
2022-09-15T05:18:32.118Z,98.86
2022-09-15T05:19:32.337Z,98.96
2022-09-15T05:20:32.451Z,98.75
2022-09-15T05:21:32.651Z,98.86
2022-09-15T05:22:32.807Z,98.55
2022-09-15T05:23:32.986Z,98.66
2022-09-15T05:24:33.177Z,98.66
2022-09-15T05:25:33.332Z,98.35
2022-09-15T05:26:33.519Z,98.25
2022-09-15T05:27:33.718Z,97.94
2022-09-15T05:28:33.892Z,97.94
2022-09-15T05:29:34.087Z,97.84
2022-09-15T05:30:41.425Z,97.94
2022-09-15T05:31:34.497Z,97.84
2022-09-15T05:32:34.574Z,98.14
2022-09-15T05:33:34.784Z,97.94
2022-09-15T05:34:34.972Z,97.94
2022-09-15T05:35:35.152Z,97.84
2022-09-15T05:36:35.323Z,97.13
2022-09-15T05:37:35.533Z,97.13
2022-09-15T05:38:35.709Z,97.13
2022-09-15T05:39:35.923Z,97.03
2022-09-15T05:40:36.175Z,97.03
2022-09-15T05:41:36.267Z,96.83
2022-09-15T05:42:36.440Z,96.72
2022-09-15T05:43:36.677Z,96.31
2022-09-15T05:44:36.854Z,96.31
2022-09-15T05:45:37.049Z,96.01
2022-09-15T05:46:37.353Z,96.01
2022-09-15T05:47:37.417Z,95.81
2022-09-15T05:48:37.608Z,95.61
2022-09-15T05:49:37.839Z,95.40
2022-09-15T05:50:37.984Z,95.09
2022-09-15T05:51:38.197Z,95.00
2022-09-15T05:52:38.351Z,94.95
2022-09-15T05:53:38.553Z,94.54
2022-09-15T05:54:38.771Z,94.54
2022-09-15T05:55:38.929Z,94.24
2022-09-15T05:56:39.121Z,94.34
2022-09-15T05:57:39.326Z,94.34
2022-09-15T05:58:39.507Z,94.44
2022-09-15T05:59:39.724Z,94.44
2022-09-15T06:00:39.879Z,94.44
2022-09-15T06:01:40.146Z,94.04
2022-09-15T06:02:40.336Z,93.43
2022-09-15T06:03:40.484Z,93.43
2022-09-15T06:04:40.688Z,93.52
2022-09-15T06:05:40.883Z,93.93
2022-09-15T06:06:41.069Z,94.13
2022-09-15T06:07:41.265Z,93.52
2022-09-15T06:08:44.301Z,93.52
2022-09-15T06:09:41.664Z,92.82
2022-09-15T06:10:41.829Z,92.30
2022-09-15T06:11:42.023Z,91.90
2022-09-15T06:12:42.219Z,91.80
2022-09-15T06:13:42.412Z,91.60
2022-09-15T06:14:42.624Z,91.60
2022-09-15T06:15:42.842Z,91.55
2022-09-15T06:16:42.983Z,91.65
2022-09-15T06:17:43.181Z,91.55
2022-09-15T06:18:43.387Z,91.75
2022-09-15T06:19:43.629Z,91.75
2022-09-15T06:20:43.789Z,91.86
2022-09-15T06:21:43.943Z,91.96
2022-09-15T06:22:44.134Z,92.16
2022-09-15T06:23:48.577Z,92.16
2022-09-15T06:24:44.536Z,92.16
2022-09-15T06:25:44.688Z,92.26
2022-09-15T06:26:44.878Z,92.16
2022-09-15T06:27:45.089Z,92.16
2022-09-15T06:28:45.250Z,92.16
2022-09-15T06:29:45.478Z,92.26
2022-09-15T06:30:45.634Z,92.16
2022-09-15T06:31:45.928Z,92.47
2022-09-15T06:32:48.194Z,92.36
2022-09-15T06:33:46.221Z,92.77
2022-09-15T06:34:46.440Z,92.67
2022-09-15T06:35:46.618Z,92.57
2022-09-15T06:36:46.799Z,92.47
2022-09-15T06:37:46.977Z,92.36
2022-09-15T06:38:47.189Z,92.32
2022-09-15T06:39:47.407Z,92.06
2022-09-15T06:40:47.530Z,92.12
2022-09-15T06:42:01.900Z,92.22
2022-09-15T06:42:47.887Z,92.22
2022-09-15T06:43:48.073Z,92.32
2022-09-15T06:44:48.255Z,92.32
2022-09-15T06:45:48.473Z,92.42
2022-09-15T06:46:48.635Z,91.41
2022-09-15T06:48:02.099Z,91.51
2022-09-15T06:48:49.014Z,92.02
2022-09-15T06:49:49.216Z,92.32
2022-09-15T06:50:49.370Z,92.22
2022-09-15T06:51:49.599Z,91.82
2022-09-15T06:52:49.756Z,91.26
2022-09-15T06:53:49.954Z,90.55
2022-09-15T06:54:50.165Z,90.14
2022-09-15T06:55:50.332Z,90.14
2022-09-15T06:56:50.529Z,89.54
2022-09-15T06:57:50.723Z,89.33
2022-09-15T06:58:50.930Z,89.43
2022-09-15T06:59:51.188Z,89.29
2022-09-15T07:00:51.317Z,89.13
2022-09-15T07:01:51.562Z,88.12
2022-09-15T07:02:51.811Z,88.21
2022-09-15T07:03:51.919Z,88.01
2022-09-15T07:04:52.149Z,86.86
2022-09-15T07:05:52.289Z,87.16
2022-09-15T07:06:52.483Z,86.86
2022-09-15T07:07:52.689Z,86.35
2022-09-15T07:08:52.978Z,85.84
2022-09-15T07:09:53.101Z,85.24
2022-09-15T07:10:53.272Z,85.39
2022-09-15T07:11:53.476Z,83.87
2022-09-15T07:12:53.648Z,83.77
2022-09-15T07:13:53.844Z,82.92
2022-09-15T07:14:54.045Z,82.82
2022-09-15T07:15:54.254Z,82.62
2022-09-15T07:16:54.381Z,82.82
2022-09-15T07:17:54.585Z,82.76
2022-09-15T07:18:54.791Z,83.47
2022-09-15T07:19:55.013Z,83.67
2022-09-15T07:20:55.129Z,84.38
2022-09-15T07:21:55.331Z,86.00
2022-09-15T07:22:55.546Z,86.15
2022-09-15T07:23:55.756Z,88.18
2022-09-15T07:24:55.953Z,86.19
2022-09-15T07:25:56.111Z,86.90
2022-09-15T07:26:56.283Z,86.59
2022-09-15T07:27:56.490Z,86.39
2022-09-15T07:28:56.691Z,87.20
2022-09-15T07:29:56.898Z,87.10
2022-09-15T07:30:57.071Z,87.51
2022-09-15T07:31:57.374Z,87.37
2022-09-15T07:32:57.482Z,85.44
2022-09-15T07:33:57.637Z,85.44
2022-09-15T07:34:58.575Z,86.25
2022-09-15T07:35:58.037Z,86.35
2022-09-15T07:36:58.197Z,86.31
2022-09-15T07:37:58.401Z,86.10
2022-09-15T07:38:58.611Z,86.10
2022-09-15T07:39:58.897Z,85.30
2022-09-15T07:40:59.000Z,86.82
2022-09-15T07:41:59.180Z,84.58
2022-09-15T07:42:59.393Z,84.99
2022-09-15T07:43:59.547Z,84.99
2022-09-15T07:44:59.775Z,85.36
2022-09-15T07:45:59.991Z,84.64
2022-09-15T07:47:00.114Z,84.55
2022-09-15T07:48:00.317Z,84.14
2022-09-15T07:49:00.493Z,84.75
2022-09-15T07:50:00.707Z,84.44
2022-09-15T07:51:00.870Z,84.85
2022-09-15T07:52:01.052Z,85.09
2022-09-15T07:53:01.266Z,85.19
2022-09-15T07:54:01.452Z,85.46
2022-09-15T07:55:01.663Z,85.05
2022-09-15T07:56:01.820Z,84.04
2022-09-15T07:57:02.010Z,84.00
2022-09-15T07:58:02.202Z,84.10
2022-09-15T07:59:02.392Z,83.69
2022-09-15T08:00:02.602Z,84.41
2022-09-15T08:01:02.825Z,84.20
2022-09-15T08:02:02.975Z,84.47
2022-09-15T08:03:03.222Z,83.25
2022-09-15T08:04:03.302Z,83.21
2022-09-15T08:05:03.514Z,83.01
2022-09-15T08:06:03.673Z,82.20
2022-09-15T08:07:03.871Z,81.69
2022-09-15T08:08:04.042Z,82.16
2022-09-15T08:09:04.485Z,80.24
2022-09-15T08:10:04.458Z,80.44
2022-09-15T08:11:04.653Z,80.30
2022-09-15T08:12:04.821Z,80.00
2022-09-15T08:13:04.991Z,80.60
2022-09-15T08:14:05.154Z,80.71
2022-09-15T08:15:05.368Z,79.75
2022-09-15T08:16:05.599Z,79.66
2022-09-15T08:17:10.715Z,79.86
2022-09-15T08:18:05.914Z,79.59
2022-09-15T08:19:06.143Z,79.55
2022-09-15T08:20:06.353Z,78.64
2022-09-15T08:21:06.450Z,79.59
2022-09-15T08:22:06.652Z,79.96
2022-09-15T08:23:06.869Z,80.16
2022-09-15T08:24:07.016Z,79.25
2022-09-15T08:25:07.245Z,79.35
2022-09-15T08:26:10.663Z,79.86
2022-09-15T08:27:07.601Z,78.95
2022-09-15T08:28:07.774Z,79.49
2022-09-15T08:29:07.975Z,79.33
2022-09-15T08:30:08.207Z,79.93
2022-09-15T08:31:08.422Z,80.00
2022-09-15T08:32:09.312Z,80.50
2022-09-15T08:33:08.751Z,80.50
2022-09-15T08:34:08.944Z,81.11
2022-09-15T08:35:09.164Z,80.91
2022-09-15T08:36:09.327Z,80.84
2022-09-15T08:37:09.501Z,80.94
2022-09-15T08:38:09.670Z,80.98
2022-09-15T08:39:09.871Z,82.10
2022-09-15T08:40:10.180Z,82.10
2022-09-15T08:41:10.247Z,81.55
2022-09-15T08:42:10.399Z,80.74
2022-09-15T08:43:10.583Z,80.91
2022-09-15T08:44:10.776Z,81.01
2022-09-15T08:45:10.990Z,80.91
2022-09-15T08:46:11.212Z,80.00
2022-09-15T08:47:11.313Z,80.50
2022-09-15T08:48:11.501Z,80.91
2022-09-15T08:49:11.707Z,81.31
2022-09-15T08:50:11.929Z,81.82
2022-09-15T08:51:12.116Z,80.66
2022-09-15T08:52:12.280Z,80.46
2022-09-15T08:53:12.491Z,79.59
2022-09-15T08:54:12.673Z,80.24
2022-09-15T08:55:12.878Z,79.33
2022-09-15T08:56:13.051Z,79.29
2022-09-15T08:57:13.258Z,79.96
2022-09-15T08:58:13.422Z,79.21
2022-09-15T08:59:13.619Z,78.20
2022-09-15T09:00:13.834Z,77.19
2022-09-15T09:01:14.117Z,79.01
2022-09-15T09:02:14.200Z,77.70
2022-09-15T09:03:14.456Z,77.36
2022-09-15T09:04:18.015Z,75.87
2022-09-15T09:05:14.782Z,75.47
2022-09-15T09:06:14.956Z,75.16
2022-09-15T09:07:15.128Z,75.54
2022-09-15T09:08:21.328Z,75.16
2022-09-15T09:09:15.511Z,75.13
2022-09-15T09:10:15.724Z,75.74
2022-09-15T09:11:15.908Z,75.98
2022-09-15T09:12:16.116Z,76.48
2022-09-15T09:13:16.334Z,76.14
2022-09-15T09:14:16.545Z,76.40
2022-09-15T09:15:16.764Z,76.10
2022-09-15T09:16:17.055Z,75.16
2022-09-15T09:17:17.145Z,73.99
2022-09-15T09:18:17.356Z,74.93
2022-09-15T09:19:17.504Z,75.34
2022-09-15T09:20:17.873Z,75.63
2022-09-15T09:21:17.922Z,75.74
2022-09-15T09:22:18.109Z,75.03
2022-09-15T09:23:18.286Z,74.02
2022-09-15T09:24:18.482Z,73.05
2022-09-15T09:25:27.096Z,72.54
2022-09-15T09:26:18.878Z,72.41
2022-09-15T09:27:19.102Z,70.53
2022-09-15T09:28:19.268Z,70.43
2022-09-15T09:29:19.457Z,71.03
2022-09-15T09:30:19.677Z,70.09
2022-09-15T09:31:19.891Z,70.09
2022-09-15T09:32:21.768Z,69.56
2022-09-15T09:33:20.182Z,69.25
2022-09-15T09:34:20.385Z,69.65
2022-09-15T09:35:20.590Z,68.82
2022-09-15T09:36:20.746Z,70.39
2022-09-15T09:37:20.961Z,71.60
2022-09-15T09:38:21.174Z,68.71
2022-09-15T09:39:21.374Z,70.73
2022-09-15T09:40:21.652Z,70.50
2022-09-15T09:41:21.754Z,69.79
2022-09-15T09:42:21.958Z,69.62
2022-09-15T09:43:22.147Z,65.88
2022-09-15T09:44:22.350Z,68.31
2022-09-15T09:45:22.542Z,69.38
2022-09-15T09:46:22.759Z,69.92
2022-09-15T09:47:22.882Z,70.93
2022-09-15T09:48:23.084Z,74.15
2022-09-15T09:49:23.276Z,76.04
2022-09-15T09:50:23.480Z,78.03
2022-09-15T09:51:23.678Z,79.08
2022-09-15T09:52:23.876Z,79.52
2022-09-15T09:53:24.066Z,78.34
2022-09-15T09:54:24.261Z,76.97
2022-09-15T09:55:24.464Z,77.26
2022-09-15T09:56:24.631Z,78.52
2022-09-15T09:57:24.791Z,79.97
2022-09-15T09:58:24.993Z,81.73
2022-09-15T09:59:25.183Z,81.43
2022-09-15T10:00:25.398Z,81.37
2022-09-15T10:01:25.641Z,82.34
2022-09-15T10:02:25.742Z,82.64
2022-09-15T10:03:29.413Z,81.83
2022-09-15T10:04:26.166Z,80.82
2022-09-15T10:05:26.320Z,81.93
2022-09-15T10:06:26.488Z,82.03
2022-09-15T10:07:26.682Z,81.99
2022-09-15T10:08:26.905Z,82.10
2022-09-15T10:09:32.605Z,82.40
2022-09-15T10:10:27.275Z,81.71
2022-09-15T10:11:27.458Z,79.41
2022-09-15T10:12:27.640Z,77.99
2022-09-15T10:13:27.818Z,75.90
2022-09-15T10:14:28.023Z,75.13
2022-09-15T10:15:28.231Z,72.77
2022-09-15T10:16:28.516Z,73.72
2022-09-15T10:17:28.630Z,74.05
2022-09-15T10:18:28.856Z,72.64
2022-09-15T10:19:29.006Z,73.05
2022-09-15T10:20:29.238Z,72.64
2022-09-15T10:21:29.404Z,72.88
2022-09-15T10:22:29.583Z,71.87
2022-09-15T10:23:29.768Z,70.19
2022-09-15T10:24:29.959Z,70.79
2022-09-15T10:25:49.342Z,70.12
2022-09-15T10:26:30.344Z,69.12
2022-09-15T10:27:30.550Z,69.05
2022-09-15T10:28:30.780Z,69.92
2022-09-15T10:29:30.929Z,69.65
2022-09-15T10:30:31.135Z,69.32
2022-09-15T10:31:31.507Z,67.44
2022-09-15T10:32:31.557Z,67.41
2022-09-15T10:33:31.689Z,65.84
2022-09-15T10:34:31.907Z,63.09
2022-09-15T10:35:32.114Z,64.79
2022-09-15T10:36:32.294Z,66.74
2022-09-15T10:37:32.483Z,66.60
2022-09-15T10:38:32.673Z,65.44
2022-09-15T10:39:32.862Z,63.93
2022-09-15T10:40:33.222Z,64.03
2022-09-15T10:41:33.242Z,64.90
2022-09-15T10:42:33.433Z,64.50
2022-09-15T10:43:33.639Z,65.64
2022-09-15T10:44:33.818Z,66.27
2022-09-15T10:45:34.041Z,67.10
2022-09-15T10:46:37.577Z,68.65
2022-09-15T10:47:34.396Z,66.16
2022-09-15T10:48:34.594Z,64.49
2022-09-15T10:49:34.805Z,64.92
2022-09-15T10:50:35.015Z,65.42
2022-09-15T10:51:35.209Z,66.19
2022-09-15T10:52:35.383Z,65.09
2022-09-15T10:53:35.622Z,63.96
2022-09-15T10:54:35.775Z,64.86
2022-09-15T10:55:51.540Z,66.33
2022-09-15T10:56:36.154Z,65.03
2022-09-15T10:57:36.360Z,63.70
2022-09-15T10:58:36.530Z,65.36
2022-09-15T10:59:36.745Z,65.09
2022-09-15T11:00:36.989Z,64.23
2022-09-15T11:01:37.100Z,65.50
2022-09-15T11:02:37.298Z,66.16
2022-09-15T11:03:37.498Z,68.04
2022-09-15T11:04:37.742Z,69.75
2022-09-15T11:05:37.889Z,71.03
2022-09-15T11:06:38.062Z,73.42
2022-09-15T11:07:38.222Z,77.57
2022-09-15T11:08:38.411Z,81.26
2022-09-15T11:09:38.610Z,84.48
2022-09-15T11:10:38.825Z,86.76
2022-09-15T11:11:39.021Z,86.69
2022-09-15T11:12:39.215Z,88.06
2022-09-15T11:13:39.423Z,85.55
2022-09-15T11:14:39.585Z,86.57
2022-09-15T11:15:39.786Z,88.13
2022-09-15T11:16:40.108Z,88.04
2022-09-15T11:17:40.113Z,89.15
2022-09-15T11:18:40.304Z,89.87
2022-09-15T11:19:40.493Z,90.22
2022-09-15T11:20:40.739Z,90.42
2022-09-15T11:21:40.862Z,91.84
2022-09-15T11:22:41.065Z,91.13
2022-09-15T11:23:41.270Z,91.33
2022-09-15T11:24:41.467Z,89.87
2022-09-15T11:25:41.716Z,89.72
2022-09-15T11:26:41.863Z,88.26
2022-09-15T11:27:42.049Z,90.19
2022-09-15T11:28:42.241Z,89.74
2022-09-15T11:29:42.441Z,89.54
2022-09-15T11:30:47.549Z,89.54
2022-09-15T11:31:43.086Z,89.74
2022-09-15T11:32:43.035Z,90.20
2022-09-15T11:33:43.247Z,89.19
2022-09-15T11:34:43.453Z,88.28
2022-09-15T11:35:43.663Z,88.75
2022-09-15T11:36:43.861Z,85.84
2022-09-15T11:37:44.054Z,83.07
2022-09-15T11:38:44.276Z,83.44
2022-09-15T11:39:44.479Z,81.27
2022-09-15T11:40:44.700Z,83.50
2022-09-15T11:41:44.874Z,82.39
2022-09-15T11:42:45.088Z,83.33
2022-09-15T11:43:45.334Z,82.76
2022-09-15T11:44:45.486Z,83.88
2022-09-15T11:45:45.687Z,83.61
2022-09-15T11:46:45.940Z,84.22
2022-09-15T11:47:46.072Z,83.15
2022-09-15T11:48:46.277Z,83.04
2022-09-15T11:49:46.461Z,82.84
2022-09-15T11:50:46.674Z,83.65
2022-09-15T11:51:46.851Z,84.06
2022-09-15T11:52:47.048Z,82.95
2022-09-15T11:53:47.242Z,83.15
2022-09-15T11:54:47.426Z,80.82
2022-09-15T11:55:47.649Z,80.21
2022-09-15T11:56:47.824Z,81.52
2022-09-15T11:57:48.118Z,80.92
2022-09-15T11:58:48.229Z,79.10
2022-09-15T11:59:48.428Z,80.18
2022-09-15T12:00:48.640Z,79.22
2022-09-15T12:01:48.886Z,79.08
2022-09-15T12:02:49.131Z,77.97
2022-09-15T12:03:49.259Z,77.61
2022-09-15T12:04:49.453Z,77.57
2022-09-15T12:05:49.694Z,77.23
2022-09-15T12:06:49.891Z,78.78
2022-09-15T12:07:50.079Z,76.59
2022-09-15T12:08:50.257Z,79.43
2022-09-15T12:09:50.438Z,79.33
2022-09-15T12:10:50.657Z,78.31
2022-09-15T12:11:50.846Z,78.11
2022-09-15T12:12:51.080Z,79.33
2022-09-15T12:13:51.269Z,80.16
2022-09-15T12:14:51.479Z,79.55
2022-09-15T12:15:51.759Z,77.13
2022-09-15T12:16:51.882Z,79.39
2022-09-15T12:17:52.082Z,78.17
2022-09-15T12:18:52.292Z,77.26
2022-09-15T12:19:52.460Z,78.38
2022-09-15T12:20:52.766Z,77.87
2022-09-15T12:21:52.830Z,78.58
2022-09-15T12:22:53.023Z,78.34
2022-09-15T12:23:53.202Z,76.35
2022-09-15T12:24:53.404Z,76.93
2022-09-15T12:25:53.623Z,74.87
2022-09-15T12:26:53.810Z,76.08
2022-09-15T12:27:54.005Z,75.27
2022-09-15T12:28:54.200Z,75.07
2022-09-15T12:29:54.410Z,74.93
2022-09-15T12:30:54.654Z,72.58
2022-09-15T12:31:54.789Z,70.22
2022-09-15T12:32:54.967Z,70.32
2022-09-15T12:33:55.165Z,71.50
2022-09-15T12:34:55.367Z,70.42
2022-09-15T12:35:55.568Z,68.88
2022-09-15T12:36:55.819Z,68.71
2022-09-15T12:37:55.958Z,68.11
2022-09-15T12:38:56.161Z,69.42
2022-09-15T12:39:56.442Z,68.08
2022-09-15T12:40:56.570Z,68.21
2022-09-15T12:41:56.762Z,66.67
2022-09-15T12:42:56.966Z,66.67
2022-09-15T12:43:57.161Z,68.04
2022-09-15T12:44:57.350Z,66.83
2022-09-15T12:45:57.655Z,67.27
2022-09-15T12:46:57.734Z,65.66
2022-09-15T12:47:57.926Z,65.69
2022-09-15T12:48:58.135Z,65.66
2022-09-15T12:49:58.320Z,65.12
2022-09-15T12:50:58.525Z,64.92
2022-09-15T12:51:58.713Z,65.26
2022-09-15T12:52:58.899Z,65.56
2022-09-15T12:53:59.087Z,65.30
2022-09-15T12:54:59.293Z,64.72
2022-09-15T12:55:59.498Z,66.27